Aérodrome :
LOGIN :

S'inscrire | Disclaimer

   EN    FR    IT 

 










Légende :    VFR   VFR Marginal   IFR   IFR Intensif   IFR Très Intensif
Visi : 
Plafond : 
>= 8 km
>= 3000ft
5 à 8 km
1000 à 3000 ft
1500m à 5 km
500 à 1000 ft
800 à 1500m
200 à 500 ft
< 800m
< 200 ft
Symboles :   Orages  Brouillard  Fortes neiges  Fortes précipitations  Vent > 20 kt
SIGMETs :   Divers  Orages  Givrage  Turbulence  Onde Orograph.  Cendres Volcan.







- Altitude de l'aérodrome : 3 ft
- Code IATA : LWR


EHLW - Leuuwarden Air Base

DERNIER METAR :
  • 140355Z AUTO 25010KT 9999 FEW063 SCT071 OVC077 04/02 Q0984 BLU

METARs EXPIRÉS :
  • 140325Z AUTO 25009KT 9999 FEW051 SCT079 BKN085 04/02 Q0984 BLU
  • 140305Z AUTO 25011KT 9999 FEW024 BKN029 OVC035 04/02 Q0984 BLU
  • 140255Z AUTO 25013KT 210V280 9999 FEW002 SCT033 OVC048 04/02 Q0984 REDZ BLU
  • 140239Z AUTO 25007KT 220V280 9999 -RA FEW019 SCT024 BKN042 04/02 Q0984 WHT
  • 140231Z AUTO 25008KT 220V280 9999 FEW018 SCT027 BKN049 04/02 Q0984 BLU
  • 140225Z AUTO 26011KT 9999 SCT016 BKN019 BKN039 04/02 Q0984 WHT
  • 140202Z AUTO 26013KT 220V280 9999 -UP SCT024 BKN031 BKN036 04/02 Q0984 WHT
  • 140155Z AUTO 25011KT 9999 SCT045 BKN140 OVC200 04/02 Q0984 BLU
  • 140125Z AUTO 25012KT 9999 SCT037 SCT044 BKN150 04/01 Q0984 BLU

TAF TAF EHLW
Valide du 14 à 02h jusqu'au 14 à 14h UTC


140142Z 1402/1414 24012KT 9999 FEW022
PROB40
TEMPO 1402/1404 FEW020CB
TEMPO 1404/1412 24015G25KT 4000 SHRAGS FEW008 SCT012 BKN018CB
PROB40
TEMPO 1404/1412 25020G30KT 2500 SHRASN TSRAGS BKN006 SCT016CB BKN020
Pas de NOTAMs connus pour ce terrain.



MET'MAP, la Météo Aéronautique d'un coup d'oeil ! - Copyright ORBIFLY Décembre 2007 - Disclaimer

ORBIFLY MET'MAP TEAM :

Programmation & Développement : Alexandra Zaïnal
Conception & Développement : Baudouin d'Aumeries
Co-Programmation & Développement : Marc-Olivier Méhu
Soutien technique & logistique : Manuel Goepfert

Contact : metmap@orbifly.com




SOURCES & CREDITS :

   NOAA